createdAt,value
2019-01-16T00:01:20.209Z,99431.30
2019-01-16T00:03:52.942Z,99416.73
2019-01-16T00:06:24.379Z,99417.52
2019-01-16T00:08:55.483Z,99416.48
2019-01-16T00:11:26.583Z,99414.63
2019-01-16T00:13:57.683Z,99410.68
2019-01-16T00:16:28.818Z,99410.42
2019-01-16T00:19:06.332Z,99410.68
2019-01-16T00:21:53.346Z,99409.09
2019-01-16T00:24:24.452Z,99416.26
2019-01-16T00:27:01.211Z,99416.00
2019-01-16T00:29:50.640Z,99408.05
2019-01-16T00:32:27.445Z,99413.90
2019-01-16T00:34:58.553Z,99409.11
2019-01-16T00:37:45.891Z,99415.98
2019-01-16T00:40:33.164Z,99413.31
2019-01-16T00:43:06.989Z,99410.97
2019-01-16T00:45:41.032Z,99419.75
2019-01-16T00:48:15.248Z,99411.55
2019-01-16T00:50:49.572Z,99417.63
2019-01-16T00:53:20.669Z,99418.18
2019-01-16T00:56:00.766Z,99424.52
2019-01-16T00:58:32.211Z,99410.45
2019-01-16T01:01:03.628Z,99419.23
2019-01-16T01:03:40.762Z,99426.40
2019-01-16T01:06:12.827Z,99420.56
2019-01-16T01:08:46.696Z,99422.39
2019-01-16T01:11:26.914Z,99422.65
2019-01-16T01:13:58.088Z,99415.23
2019-01-16T01:16:29.205Z,99430.37
2019-01-16T01:19:03.387Z,99437.30
2019-01-16T01:21:37.027Z,99428.82
2019-01-16T01:24:08.118Z,99434.12
2019-01-16T01:26:45.201Z,99431.73
2019-01-16T01:29:32.477Z,99438.11
2019-01-16T01:32:03.599Z,99431.19
2019-01-16T01:34:43.149Z,99442.34
2019-01-16T01:37:23.413Z,99434.39
2019-01-16T01:39:54.786Z,99451.40
2019-01-16T01:42:32.104Z,99440.03
2019-01-16T01:45:21.397Z,99444.54
2019-01-16T01:47:55.207Z,99441.37
2019-01-16T01:50:29.034Z,99446.70
2019-01-16T01:53:06.249Z,99441.97
2019-01-16T01:55:49.872Z,99442.49
2019-01-16T01:58:20.975Z,99449.37
2019-01-16T02:01:03.989Z,99440.93
2019-01-16T02:03:44.359Z,99449.93
2019-01-16T02:06:24.512Z,99450.47
2019-01-16T02:09:12.320Z,99453.68
2019-01-16T02:11:52.611Z,99457.41
2019-01-16T02:14:24.768Z,99457.69
2019-01-16T02:17:12.184Z,99451.86
2019-01-16T02:19:45.929Z,99455.03
2019-01-16T02:22:19.684Z,99454.03
2019-01-16T02:25:08.877Z,99459.33
2019-01-16T02:27:39.975Z,99456.70
2019-01-16T02:30:14.498Z,99452.48
2019-01-16T02:32:52.564Z,99460.44
2019-01-16T02:35:23.872Z,99464.45
2019-01-16T02:37:54.969Z,99461.02
2019-01-16T02:40:28.771Z,99463.16
2019-01-16T02:42:59.883Z,99461.84
2019-01-16T02:45:46.272Z,99460.74
2019-01-16T02:48:32.170Z,99459.41
2019-01-16T02:51:03.293Z,99463.40
2019-01-16T02:53:46.437Z,99465.56
2019-01-16T02:56:32.442Z,99469.57
2019-01-16T02:59:06.352Z,99456.30
2019-01-16T03:01:46.569Z,99465.30
2019-01-16T03:04:23.516Z,99463.96
2019-01-16T03:07:09.978Z,99456.00
2019-01-16T03:09:41.088Z,99463.45
2019-01-16T03:12:27.629Z,99457.06
2019-01-16T03:15:05.126Z,99467.44
2019-01-16T03:17:42.116Z,99467.16
2019-01-16T03:20:13.220Z,99465.05
2019-01-16T03:23:02.080Z,99471.12
2019-01-16T03:25:41.742Z,99466.63
2019-01-16T03:28:29.272Z,99473.00
2019-01-16T03:31:03.345Z,99479.41
2019-01-16T03:33:37.712Z,99474.63
2019-01-16T03:36:25.097Z,99475.67
2019-01-16T03:39:05.496Z,99476.42
2019-01-16T03:41:39.252Z,99479.59
2019-01-16T03:44:28.623Z,99477.16
2019-01-16T03:47:16.141Z,99474.19
2019-01-16T03:49:47.468Z,99474.97
2019-01-16T03:52:20.969Z,99470.73
2019-01-16T03:55:08.745Z,99473.66
2019-01-16T03:57:49.119Z,99477.40
2019-01-16T04:03:38.778Z,99474.74
2019-01-16T04:06:09.871Z,99472.88
2019-01-16T04:08:43.722Z,99472.61
2019-01-16T04:14:10.042Z,99473.17
2019-01-16T04:16:47.062Z,99476.92
2019-01-16T04:19:21.828Z,99475.05
2019-01-16T04:21:53.914Z,99478.97
2019-01-16T04:24:41.159Z,99476.11
2019-01-16T04:27:12.250Z,99475.31
2019-01-16T04:29:46.383Z,99466.53
2019-01-16T04:32:26.427Z,99479.03
2019-01-16T04:34:57.523Z,99480.84
2019-01-16T04:37:37.296Z,99483.02
2019-01-16T04:40:08.800Z,99490.20
2019-01-16T04:42:40.157Z,99482.75
2019-01-16T04:45:17.246Z,99486.72
2019-01-16T04:47:48.344Z,99491.76
2019-01-16T04:50:19.693Z,99486.98
2019-01-16T04:52:56.340Z,99484.35
2019-01-16T04:55:43.766Z,99490.20
2019-01-16T04:58:32.895Z,99492.88
2019-01-16T05:01:09.697Z,99489.67
2019-01-16T05:03:40.865Z,99485.95
2019-01-16T05:06:11.946Z,99485.41
2019-01-16T05:08:55.000Z,99478.25
2019-01-16T05:11:34.765Z,99487.27
2019-01-16T05:14:05.855Z,99486.47
2019-01-16T05:16:53.168Z,99484.35
2019-01-16T05:19:42.559Z,99490.71
2019-01-16T05:22:22.538Z,99486.22
2019-01-16T05:24:53.643Z,99484.36
2019-01-16T05:27:41.168Z,99486.23
2019-01-16T05:30:29.562Z,99488.89
2019-01-16T05:33:01.738Z,99483.84
2019-01-16T05:35:45.041Z,99492.09
2019-01-16T05:38:32.361Z,99485.19
2019-01-16T05:41:18.232Z,99479.90
2019-01-16T05:44:05.245Z,99479.90
2019-01-16T05:46:48.301Z,99486.84
2019-01-16T05:49:35.267Z,99481.78
2019-01-16T05:52:15.164Z,99475.43
2019-01-16T05:55:02.516Z,99484.19
2019-01-16T05:57:49.857Z,99479.95
2019-01-16T06:00:24.051Z,99473.39
2019-01-16T06:02:58.607Z,99476.64
2019-01-16T06:05:47.533Z,99470.93
2019-01-16T06:08:32.468Z,99472.45
2019-01-16T06:11:06.084Z,99470.81
2019-01-16T06:13:37.249Z,99470.58
2019-01-16T06:16:08.377Z,99472.73
2019-01-16T06:18:45.383Z,99468.50
2019-01-16T06:21:16.825Z,99464.28
2019-01-16T06:23:50.568Z,99477.27
2019-01-16T06:26:37.749Z,99472.94
2019-01-16T06:29:08.844Z,99478.75
2019-01-16T06:31:55.212Z,99476.04
2019-01-16T06:34:42.700Z,99483.75
2019-01-16T06:37:25.808Z,99480.80
2019-01-16T06:40:12.918Z,99488.19
2019-01-16T06:42:44.011Z,99491.08
2019-01-16T06:45:21.126Z,99499.02
2019-01-16T06:48:09.955Z,99489.45
2019-01-16T06:50:57.430Z,99490.24
2019-01-16T06:53:31.533Z,99491.80
2019-01-16T06:56:20.108Z,99494.98
2019-01-16T06:59:03.303Z,99501.11
2019-01-16T07:01:51.295Z,99495.55
2019-01-16T07:04:38.303Z,99499.54
2019-01-16T07:07:18.479Z,99497.45
2019-01-16T07:10:04.701Z,99496.09
2019-01-16T07:12:54.206Z,99495.34
2019-01-16T07:15:37.159Z,99491.39
2019-01-16T07:18:23.490Z,99488.20
2019-01-16T07:20:54.913Z,99491.37
2019-01-16T07:23:42.692Z,99490.03
2019-01-16T07:26:28.761Z,99491.08
2019-01-16T07:29:00.072Z,99502.01
2019-01-16T07:31:31.162Z,99501.49
2019-01-16T07:34:04.915Z,99497.80
2019-01-16T07:36:53.259Z,99501.02
2019-01-16T07:39:24.380Z,99507.42
2019-01-16T07:42:10.692Z,99508.22
2019-01-16T07:44:56.794Z,99510.59
2019-01-16T07:47:44.109Z,99511.88
2019-01-16T07:50:18.337Z,99505.53
2019-01-16T07:53:05.329Z,99510.06
2019-01-16T07:55:39.391Z,99499.44
2019-01-16T07:58:13.154Z,99500.25
2019-01-16T08:01:00.487Z,99502.13
2019-01-16T08:06:23.239Z,99505.58
2019-01-16T08:09:06.541Z,99512.20
2019-01-16T08:11:37.792Z,99511.39
2019-01-16T08:14:14.465Z,99516.43
2019-01-16T08:17:01.954Z,99513.52
2019-01-16T08:19:33.326Z,99504.48
2019-01-16T08:22:07.137Z,99501.34
2019-01-16T08:24:52.996Z,99508.24
2019-01-16T08:27:40.309Z,99507.20
2019-01-16T08:30:27.377Z,99511.99
2019-01-16T08:33:14.606Z,99519.20
2019-01-16T08:35:45.678Z,99518.11
2019-01-16T08:38:28.765Z,99510.91
2019-01-16T08:41:02.339Z,99516.80
2019-01-16T08:43:33.512Z,99507.00
2019-01-16T08:46:07.676Z,99504.34
2019-01-16T08:48:41.719Z,99504.10
2019-01-16T08:51:31.205Z,99507.84
2019-01-16T08:54:19.321Z,99506.23
2019-01-16T08:56:59.610Z,99504.13
2019-01-16T08:59:30.875Z,99494.02
2019-01-16T09:02:11.164Z,99503.08
2019-01-16T09:04:45.061Z,99502.83
2019-01-16T09:07:19.224Z,99503.11
2019-01-16T09:09:50.399Z,99511.92
2019-01-16T09:12:24.416Z,99499.16
2019-01-16T09:15:14.032Z,99510.58
2019-01-16T09:17:48.377Z,99512.71
2019-01-16T09:20:28.383Z,99508.18
2019-01-16T09:23:16.024Z,99506.05
2019-01-16T09:25:53.084Z,99511.13
2019-01-16T09:28:24.241Z,99498.89
2019-01-16T09:30:58.082Z,99512.45
2019-01-16T09:33:35.347Z,99502.06
2019-01-16T09:36:09.102Z,99498.35
2019-01-16T09:38:49.215Z,99501.02
2019-01-16T09:41:20.597Z,99506.59
2019-01-16T09:43:57.466Z,99508.18
2019-01-16T09:46:46.948Z,99510.33
2019-01-16T09:49:34.008Z,99499.94
2019-01-16T09:52:07.536Z,99506.59
2019-01-16T09:54:41.581Z,99497.02
2019-01-16T09:57:24.871Z,99499.42
2019-01-16T10:00:14.584Z,99507.14
2019-01-16T10:02:51.754Z,99504.20
2019-01-16T10:05:25.664Z,99501.25
2019-01-16T10:07:56.761Z,99501.53
2019-01-16T10:10:36.924Z,99508.42
2019-01-16T10:13:17.244Z,99495.41
2019-01-16T10:16:00.889Z,99495.92
2019-01-16T10:18:50.090Z,99488.73
2019-01-16T10:21:23.834Z,99482.85
2019-01-16T10:23:54.925Z,99490.51
2019-01-16T10:26:34.645Z,99477.98
2019-01-16T10:29:18.231Z,99490.23
2019-01-16T10:31:49.336Z,99479.34
2019-01-16T10:34:20.451Z,99475.33
2019-01-16T10:36:54.273Z,99472.32
2019-01-16T10:39:32.473Z,99467.63
2019-01-16T10:42:06.237Z,99459.80
2019-01-16T10:44:40.607Z,99450.47
2019-01-16T10:47:27.432Z,99450.14
2019-01-16T10:50:01.490Z,99445.25
2019-01-16T10:52:49.274Z,99450.59
2019-01-16T10:55:23.051Z,99439.67
2019-01-16T10:57:54.186Z,99442.23
2019-01-16T11:00:27.999Z,99439.44
2019-01-16T11:02:59.099Z,99435.55
2019-01-16T11:05:42.511Z,99435.55
2019-01-16T11:08:19.597Z,99423.61
2019-01-16T11:10:53.465Z,99432.40
2019-01-16T11:13:27.360Z,99428.98
2019-01-16T11:15:58.525Z,99421.04
2019-01-16T11:18:38.261Z,99421.35
2019-01-16T11:21:25.880Z,99410.39
2019-01-16T11:24:05.907Z,99411.20
2019-01-16T11:26:37.073Z,99405.33
2019-01-16T11:29:08.155Z,99403.55
2019-01-16T11:31:39.517Z,99394.84
2019-01-16T11:34:16.519Z,99393.27
2019-01-16T11:36:56.650Z,99391.88
2019-01-16T11:39:44.261Z,99389.41
2019-01-16T11:42:30.284Z,99387.27
2019-01-16T11:45:04.099Z,99381.96
2019-01-16T11:47:37.851Z,99360.66
2019-01-16T11:50:10.181Z,99370.03
2019-01-16T11:52:41.260Z,99365.02
2019-01-16T11:55:15.297Z,99369.05
2019-01-16T11:57:55.536Z,99360.51
2019-01-16T12:00:26.645Z,99357.80
2019-01-16T12:02:57.798Z,99354.64
2019-01-16T12:05:31.402Z,99350.08
2019-01-16T12:08:05.231Z,99344.72
2019-01-16T12:10:38.957Z,99345.03
2019-01-16T12:13:15.805Z,99339.20
2019-01-16T12:15:46.915Z,99348.20
2019-01-16T12:18:33.044Z,99334.62
2019-01-16T12:21:07.015Z,99334.97
2019-01-16T12:23:53.120Z,99328.54
2019-01-16T12:26:24.220Z,99328.54
2019-01-16T12:29:01.293Z,99336.50
2019-01-16T12:31:32.388Z,99328.52
2019-01-16T12:34:09.458Z,99317.95
2019-01-16T12:36:40.541Z,99320.92
2019-01-16T12:39:14.015Z,99322.53
2019-01-16T12:42:01.346Z,99320.94
2019-01-16T12:44:32.995Z,99316.69
2019-01-16T12:47:22.365Z,99307.94
2019-01-16T12:49:53.490Z,99306.12
2019-01-16T12:55:19.862Z,99307.17
2019-01-16T12:57:56.997Z,99295.70
2019-01-16T13:00:43.624Z,99299.99
2019-01-16T13:03:17.607Z,99309.03
2019-01-16T13:05:57.669Z,99298.38
2019-01-16T13:08:40.693Z,99296.01
2019-01-16T13:11:11.805Z,99283.48
2019-01-16T13:13:54.405Z,99288.81
2019-01-16T13:16:34.737Z,99288.00
2019-01-16T13:19:21.205Z,99284.23
2019-01-16T13:21:59.282Z,99291.98
2019-01-16T13:24:36.342Z,99292.52
2019-01-16T13:27:07.788Z,99291.72
2019-01-16T13:29:38.883Z,99290.42
2019-01-16T13:32:10.308Z,99288.03
2019-01-16T13:34:41.394Z,99283.27
2019-01-16T13:37:18.236Z,99271.06
2019-01-16T13:39:52.432Z,99270.73
2019-01-16T13:42:23.639Z,99267.05
2019-01-16T13:45:00.640Z,99260.91
2019-01-16T13:47:34.625Z,99246.02
2019-01-16T13:50:09.293Z,99255.59
2019-01-16T13:52:42.770Z,99253.70
2019-01-16T13:55:30.179Z,99251.84
2019-01-16T13:58:03.956Z,99249.17
2019-01-16T14:00:35.061Z,99243.57
2019-01-16T14:03:06.137Z,99249.13
2019-01-16T14:05:37.244Z,99248.05
2019-01-16T14:08:08.408Z,99242.97
2019-01-16T14:10:45.192Z,99239.28
2019-01-16T14:13:25.005Z,99236.62
2019-01-16T14:16:14.052Z,99246.02
2019-01-16T14:18:51.384Z,99239.09
2019-01-16T14:21:25.730Z,99232.22
2019-01-16T14:23:57.134Z,99235.41
2019-01-16T14:26:33.713Z,99219.98
2019-01-16T14:29:17.343Z,99213.36
2019-01-16T14:32:00.145Z,99210.95
2019-01-16T14:34:31.228Z,99218.66
2019-01-16T14:37:02.330Z,99217.64
2019-01-16T14:39:49.764Z,99208.32
2019-01-16T14:42:26.855Z,99219.78
2019-01-16T14:45:03.946Z,99219.78
2019-01-16T14:47:51.216Z,99217.95
2019-01-16T14:50:38.587Z,99215.82
2019-01-16T14:53:10.116Z,99210.22
2019-01-16T14:55:44.286Z,99212.62
2019-01-16T14:58:18.376Z,99207.06
2019-01-16T15:01:05.879Z,99206.80
2019-01-16T15:03:38.051Z,99210.77
2019-01-16T15:06:17.906Z,99216.65
2019-01-16T15:08:49.003Z,99206.55
2019-01-16T15:11:38.135Z,99206.03
2019-01-16T15:14:09.232Z,99206.30
2019-01-16T15:16:58.429Z,99188.23
2019-01-16T15:19:32.463Z,99196.20
2019-01-16T15:22:14.552Z,99208.19
2019-01-16T15:24:48.340Z,99223.34
2019-01-16T15:27:19.515Z,99203.95
2019-01-16T15:30:06.559Z,99210.07
2019-01-16T15:32:46.807Z,99207.41
2019-01-16T15:35:34.623Z,99207.67
2019-01-16T15:38:14.730Z,99205.28
2019-01-16T15:40:48.627Z,99194.14
2019-01-16T15:43:36.189Z,99189.34
2019-01-16T15:46:16.265Z,99186.16
2019-01-16T15:48:56.624Z,99184.30
2019-01-16T15:51:28.072Z,99175.55
2019-01-16T15:54:01.840Z,99172.35
2019-01-16T15:56:41.656Z,99164.67
2019-01-16T15:59:12.741Z,99168.12
2019-01-16T16:02:02.129Z,99170.77
2019-01-16T16:04:49.334Z,99156.41
2019-01-16T16:07:32.347Z,99158.30
2019-01-16T16:10:21.539Z,99164.41
2019-01-16T16:13:01.150Z,99169.73
2019-01-16T16:15:34.670Z,99162.03
2019-01-16T16:18:11.554Z,99154.31
2019-01-16T16:20:42.658Z,99156.45
2019-01-16T16:23:13.740Z,99147.16
2019-01-16T16:25:54.016Z,99143.70
2019-01-16T16:28:27.774Z,99144.20
2019-01-16T16:31:11.452Z,99145.52
2019-01-16T16:33:42.867Z,99139.67
2019-01-16T16:36:13.941Z,99140.98
2019-01-16T16:38:50.707Z,99141.48
2019-01-16T16:41:30.372Z,99137.20
2019-01-16T16:44:18.000Z,99134.27
2019-01-16T16:46:57.971Z,99134.27
2019-01-16T16:49:32.289Z,99131.06
2019-01-16T16:52:26.037Z,99126.81
2019-01-16T16:55:11.162Z,99121.75
2019-01-16T16:57:58.274Z,99118.05
2019-01-16T17:00:29.347Z,99120.64
2019-01-16T17:03:00.737Z,99115.31
2019-01-16T17:05:48.407Z,99119.80
2019-01-16T17:08:36.004Z,99122.67
2019-01-16T17:11:07.450Z,99121.02
2019-01-16T17:13:48.891Z,99117.03
2019-01-16T17:16:32.807Z,99112.78
2019-01-16T17:19:09.910Z,99106.11
2019-01-16T17:21:49.989Z,99100.78
2019-01-16T17:24:33.118Z,99093.59
2019-01-16T17:27:06.977Z,99098.06
2019-01-16T17:29:43.760Z,99100.38
2019-01-16T17:32:17.488Z,99094.49
2019-01-16T17:35:00.587Z,99091.80
2019-01-16T17:37:47.884Z,99085.64
2019-01-16T17:40:37.131Z,99083.20
2019-01-16T17:43:08.232Z,99073.72
2019-01-16T17:45:39.328Z,99075.50
2019-01-16T17:48:26.715Z,99068.30
2019-01-16T17:51:03.526Z,99062.46
2019-01-16T17:53:37.077Z,99049.17
2019-01-16T17:56:17.049Z,99046.25
2019-01-16T17:58:48.155Z,99029.88
2019-01-16T18:01:25.218Z,99022.58
2019-01-16T18:03:59.004Z,99022.96
2019-01-16T18:06:42.114Z,99025.17
2019-01-16T18:09:31.433Z,99024.25
2019-01-16T18:12:08.718Z,99022.20
2019-01-16T18:14:40.083Z,99012.80
2019-01-16T18:17:29.425Z,99008.63
2019-01-16T18:20:12.449Z,99001.68
2019-01-16T18:22:46.531Z,98994.64
2019-01-16T18:25:17.615Z,99001.89
2019-01-16T18:27:48.727Z,99004.69
2019-01-16T18:30:36.257Z,98995.03
2019-01-16T18:33:23.603Z,98992.57
2019-01-16T18:36:10.012Z,98983.98
2019-01-16T18:38:41.105Z,98979.41
2019-01-16T18:41:12.232Z,98979.08
2019-01-16T18:43:51.841Z,98978.23
2019-01-16T18:46:35.131Z,98974.78
2019-01-16T18:49:06.232Z,98964.72
2019-01-16T18:51:40.344Z,98944.72
2019-01-16T18:54:20.795Z,98936.84
2019-01-16T18:56:58.085Z,98938.71
2019-01-16T18:59:29.203Z,98933.16
2019-01-16T19:02:16.860Z,98937.97
2019-01-16T19:04:47.952Z,98940.92
2019-01-16T19:07:24.862Z,98936.73
2019-01-16T19:09:56.313Z,98943.34
2019-01-16T19:12:27.792Z,98942.30
2019-01-16T19:15:01.587Z,98942.30
2019-01-16T19:17:49.321Z,98929.59
2019-01-16T19:20:23.780Z,98929.11
2019-01-16T19:22:58.271Z,98918.26
2019-01-16T19:25:44.823Z,98920.11
2019-01-16T19:28:24.744Z,98917.75
2019-01-16T19:30:55.865Z,98913.73
2019-01-16T19:33:39.273Z,98910.50
2019-01-16T19:36:13.415Z,98916.30
2019-01-16T19:38:44.518Z,98907.81
2019-01-16T19:41:31.757Z,98900.62
2019-01-16T19:44:08.636Z,98907.22
2019-01-16T19:46:45.540Z,98908.23
2019-01-16T19:49:28.979Z,98914.04
2019-01-16T19:52:00.057Z,98906.88
2019-01-16T19:54:31.174Z,98896.89
2019-01-16T19:57:20.941Z,98881.63
2019-01-16T20:00:08.336Z,98878.22
2019-01-16T20:02:39.410Z,98883.03
2019-01-16T20:05:13.041Z,98875.31
2019-01-16T20:07:44.124Z,98882.27
2019-01-16T20:10:15.379Z,98879.10
2019-01-16T20:12:49.524Z,98878.58
2019-01-16T20:15:23.738Z,98878.66
2019-01-16T20:18:03.896Z,98882.66
2019-01-16T20:20:37.805Z,98885.84
2019-01-16T20:23:11.185Z,98881.84
2019-01-16T20:25:42.038Z,98878.90
2019-01-16T20:28:13.135Z,98872.30
2019-01-16T20:31:02.034Z,98873.39
2019-01-16T20:33:36.204Z,98872.64
2019-01-16T20:36:07.455Z,98867.88
2019-01-16T20:38:41.480Z,98860.99
2019-01-16T20:41:18.398Z,98850.46
2019-01-16T20:43:49.509Z,98844.34
2019-01-16T20:46:23.390Z,98830.87
2019-01-16T20:49:02.997Z,98834.05
2019-01-16T20:51:34.096Z,98836.94
2019-01-16T20:54:05.180Z,98837.45
2019-01-16T20:56:38.670Z,98827.41
2019-01-16T20:59:25.080Z,98825.56
2019-01-16T21:02:14.656Z,98819.18
2019-01-16T21:04:48.531Z,98817.06
2019-01-16T21:07:19.619Z,98815.45
2019-01-16T21:09:59.673Z,98815.73
2019-01-16T21:12:47.191Z,98810.13
2019-01-16T21:15:18.247Z,98807.48
2019-01-16T21:17:58.361Z,98804.05
2019-01-16T21:20:47.631Z,98801.91
2019-01-16T21:23:23.896Z,98805.08
2019-01-16T21:26:03.250Z,98802.19
2019-01-16T21:28:46.048Z,98795.81
2019-01-16T21:31:25.917Z,98790.77
2019-01-16T21:33:59.998Z,98787.63
2019-01-16T21:36:47.393Z,98776.55
2019-01-16T21:39:24.652Z,98774.19
2019-01-16T21:42:12.130Z,98769.94
2019-01-16T21:44:48.975Z,98770.23
2019-01-16T21:47:23.075Z,98772.34
2019-01-16T21:49:59.866Z,98763.09
2019-01-16T21:52:31.415Z,98757.25
2019-01-16T21:55:17.481Z,98755.14
2019-01-16T21:57:52.546Z,98748.53
2019-01-16T22:00:39.738Z,98724.98
2019-01-16T22:03:28.931Z,98735.84
2019-01-16T22:06:02.571Z,98730.80
2019-01-16T22:08:45.458Z,98732.66
2019-01-16T22:11:19.471Z,98721.53
2019-01-16T22:13:50.905Z,98724.11
2019-01-16T22:16:24.803Z,98719.91
2019-01-16T22:19:01.969Z,98728.91
2019-01-16T22:21:43.166Z,98723.36
2019-01-16T22:24:14.239Z,98722.08
2019-01-16T22:26:54.492Z,98708.58
2019-01-16T22:29:25.602Z,98699.32
2019-01-16T22:32:11.783Z,98696.95
2019-01-16T22:34:48.908Z,98695.88
2019-01-16T22:37:20.068Z,98697.19
2019-01-16T22:39:53.604Z,98701.11
2019-01-16T22:42:27.735Z,98700.84
2019-01-16T22:45:04.593Z,98700.27
2019-01-16T22:47:44.678Z,98699.99
2019-01-16T22:50:15.792Z,98693.66
2019-01-16T22:53:03.213Z,98694.44
2019-01-16T22:55:37.168Z,98683.05
2019-01-16T22:58:14.238Z,98681.23
2019-01-16T23:01:05.338Z,98677.82
2019-01-16T23:03:52.008Z,98682.05
2019-01-16T23:06:39.400Z,98674.36
2019-01-16T23:09:16.952Z,98670.90
2019-01-16T23:12:06.629Z,98661.88
2019-01-16T23:14:37.850Z,98652.59
2019-01-16T23:17:28.641Z,98657.59
2019-01-16T23:20:12.067Z,98643.61
2019-01-16T23:22:45.976Z,98641.50
2019-01-16T23:25:17.070Z,98631.95
2019-01-16T23:27:57.169Z,98629.33
2019-01-16T23:30:44.684Z,98631.20
2019-01-16T23:33:18.537Z,98633.84
2019-01-16T23:35:49.655Z,98624.33
2019-01-16T23:38:37.605Z,98617.42
2019-01-16T23:41:08.695Z,98612.97
2019-01-16T23:43:42.372Z,98598.72
2019-01-16T23:46:15.963Z,98598.47
2019-01-16T23:49:05.845Z,98591.09
2019-01-16T23:51:46.248Z,98588.45
2019-01-16T23:54:26.236Z,98589.45
2019-01-16T23:57:06.099Z,98575.40
2019-01-16T23:59:37.200Z,98578.33
